Estación Meteorológica Peña el Pijo (Robertgarden) [ 01/30/23 14:04:52 CET ]

Fecha Hora Presion(HPa) Temp (°C) Humedad % Rocio (°C) Viento ( m/s) Direccion Lluvia 1Hora(mm) Lluvia 24H(mm) LLuvia Total(mm)
2010-Jun-22 01:01:16 1013.100 10.8 60 3.3         120.17
2010-Jun-22 02:01:13 1012.700 9.9 60 2.5         120.17
2010-Jun-22 03:05:15 1012.600 9.2 62 2.3         120.17
2010-Jun-22 04:01:15 1012.400 8.8 62 1.9         120.17
2010-Jun-22 05:01:13 1012.300 8.9 70 3.7         120.17
2010-Jun-22 06:01:16 1012.400 9.1 76 5.0         120.17
2010-Jun-22 07:01:13 1012.400 10.1 80 6.8         120.17
2010-Jun-22 08:01:11 1012.800 12.6 78 8.8         120.17
2010-Jun-22 09:01:14 1012.700 18.5 61 10.8         120.17
2010-Jun-22 10:01:12 1012.900 23.2 41 9.2         120.17
2010-Jun-22 11:01:11 1012.900 25.5 29 6.1         120.17
2010-Jun-22 12:01:13 1013.000 28.8 26 7.2         120.17
2010-Jun-22 13:01:13 1012.900 30.0 22 5.8         120.17
2010-Jun-22 14:01:14 1012.600 31.4 19 4.8         120.17
2010-Jun-22 15:01:13 1012.000 30.5 19 4.1         120.17
2010-Jun-22 16:01:16 1011.900 31.6 18 4.0         120.17
2010-Jun-22 17:01:16 1011.700 33.1 18 5.2         120.17
2010-Jun-22 18:01:13 1011.400 32.4 19 5.7         120.17
2010-Jun-22 19:01:16 1011.600 31.3 20 5.7         120.17
2010-Jun-22 20:01:13 1012.000 28.1 30 8.9         120.17
2010-Jun-22 21:01:16 1012.500 23.8 44 10.8         120.17
2010-Jun-22 22:01:12 1012.900 21.4 50 10.6         120.17
2010-Jun-22 23:01:11 1013.700 19.1 58 10.7         120.17

Temperatura Máxima:33°    Temperatura Mínima:
Presión Máxima:1013.700 Hpa    Presión Mínima:1011.400 Hpa


Volver